Time;durP1;ratioP1;P1;durP2;ratioP2;P2;SDS_P1;SDS_P2;PMS_P1;PMS_P2;Temp;Humidity;BMP_temperature;BMP_pressure;BME280_temperature;BME280_humidity;BME280_pressure;Samples;Min_cycle;Max_cycle;Signal;HPM_P1;HPM_P2
2022/12/14 00:01:21;;;;;;;23.40;12.82;;;-0.30;99.90;;;;;;5097154;28;20039;-67
2022/12/14 00:03:47;;;;;;;23.27;12.85;;;-0.40;99.90;;;;;;5097065;28;20042;-67
2022/12/14 00:06:32;;;;;;;24.20;12.73;;;-0.40;99.90;;;;;;5097285;28;20032;-67
2022/12/14 00:09:01;;;;;;;21.88;12.07;;;-0.40;99.90;;;;;;5097007;28;20387;-66
2022/12/14 00:11:27;;;;;;;23.15;12.90;;;-0.40;99.90;;;;;;5097488;28;20031;-67
2022/12/14 00:13:58;;;;;;;23.17;12.30;;;-0.30;99.90;;;;;;5096923;28;20043;-67
2022/12/14 00:16:26;;;;;;;22.05;11.77;;;-0.40;99.90;;;;;;5096969;28;20047;-66
2022/12/14 00:18:54;;;;;;;25.20;13.27;;;-0.30;99.90;;;;;;5096803;28;20080;-66
2022/12/14 00:21:21;;;;;;;20.02;12.20;;;-0.40;99.90;;;;;;5079311;28;20409;-67
2022/12/14 00:23:49;;;;;;;22.60;12.30;;;-0.50;99.90;;;;;;5096848;28;20040;-66
2022/12/14 00:26:18;;;;;;;23.58;12.70;;;-0.40;99.90;;;;;;5096817;28;20039;-67
2022/12/14 00:28:45;;;;;;;22.30;12.85;;;-0.40;99.90;;;;;;5098178;28;20032;-67
2022/12/14 00:31:12;;;;;;;21.60;11.82;;;-0.50;99.90;;;;;;5100928;28;20035;-67
2022/12/14 00:33:38;;;;;;;23.17;12.20;;;-0.50;99.90;;;;;;5100864;28;20111;-67
2022/12/14 00:36:06;;;;;;;25.70;13.25;;;-0.50;99.90;;;;;;5101407;28;20368;-67
2022/12/14 00:38:32;;;;;;;21.58;12.20;;;-0.40;99.90;;;;;;5100859;28;20043;-67
2022/12/14 00:40:58;;;;;;;22.90;13.07;;;-0.40;99.90;;;;;;5083202;28;20112;-67
2022/12/14 00:43:24;;;;;;;22.17;12.50;;;-0.50;99.90;;;;;;5083056;28;20055;-67
2022/12/14 00:45:51;;;;;;;23.35;12.55;;;-0.70;99.90;;;;;;5083220;28;20334;-69
2022/12/14 00:48:19;;;;;;;21.05;12.00;;;-0.70;99.90;;;;;;5100543;28;20032;-67
2022/12/14 00:50:46;;;;;;;21.23;11.43;;;-0.70;99.90;;;;;;5100958;28;20299;-66
2022/12/14 00:53:12;;;;;;;23.13;11.93;;;-0.80;99.90;;;;;;5100519;28;20032;-67
2022/12/14 00:55:39;;;;;;;20.75;11.90;;;-0.80;99.90;;;;;;5100440;28;20042;-67
2022/12/14 00:58:10;;;;;;;23.42;12.93;;;-0.80;99.90;;;;;;5100393;28;20036;-67
2022/12/14 01:00:36;;;;;;;20.98;11.65;;;-0.70;99.90;;;;;;5101044;28;20075;-67
2022/12/14 01:03:02;;;;;;;22.95;12.95;;;-0.70;99.90;;;;;;5100434;28;20051;-67
2022/12/14 01:05:29;;;;;;;22.58;12.50;;;-0.70;99.90;;;;;;5100275;28;20089;-67
2022/12/14 01:07:54;;;;;;;22.88;12.43;;;-0.70;99.90;;;;;;5099924;28;20075;-66
2022/12/14 01:10:21;;;;;;;23.80;12.50;;;-0.50;99.90;;;;;;5100755;28;20442;-67
2022/12/14 01:12:46;;;;;;;23.40;12.23;;;-0.50;99.90;;;;;;5100098;28;20356;-67
2022/12/14 01:15:12;;;;;;;23.08;12.55;;;-0.40;99.90;;;;;;5100630;28;20068;-66
2022/12/14 01:17:38;;;;;;;23.83;12.70;;;-0.50;99.90;;;;;;5100313;28;20039;-67
2022/12/14 01:20:05;;;;;;;21.70;12.23;;;-0.60;99.90;;;;;;5065676;28;20032;-67
2022/12/14 01:22:31;;;;;;;21.50;11.57;;;-0.50;99.90;;;;;;5099793;28;20028;-67
2022/12/14 01:24:56;;;;;;;23.05;12.52;;;-0.50;99.90;;;;;;5082322;28;20115;-67
2022/12/14 01:27:22;;;;;;;21.30;12.10;;;-0.40;99.90;;;;;;5082207;28;20489;-67
2022/12/14 01:29:48;;;;;;;24.50;12.93;;;-0.50;99.90;;;;;;5099813;28;20035;-67
2022/12/14 01:32:14;;;;;;;23.63;11.63;;;-0.50;99.90;;;;;;5099744;28;20024;-67
2022/12/14 01:34:40;;;;;;;21.55;12.15;;;-0.60;99.90;;;;;;5099707;28;20060;-68
2022/12/14 01:37:05;;;;;;;22.38;11.88;;;-0.60;99.90;;;;;;5100099;28;20396;-67
2022/12/14 01:39:31;;;;;;;23.38;11.70;;;-0.60;99.90;;;;;;5081607;28;20032;-66
2022/12/14 01:41:58;;;;;;;19.20;11.02;;;-0.60;99.90;;;;;;5099506;28;20035;-67
2022/12/14 01:44:23;;;;;;;20.45;12.10;;;-0.60;99.90;;;;;;5099454;28;20020;-67
2022/12/14 01:46:49;;;;;;;27.08;13.02;;;-0.60;99.90;;;;;;5081826;28;20093;-67
2022/12/14 01:49:21;;;;;;;24.02;12.18;;;-0.50;99.90;;;;;;5099376;28;20093;-67
2022/12/14 01:51:49;;;;;;;;;;;-0.50;99.90;;;;;;5099809;28;20036;-67
2022/12/14 01:54:15;;;;;;;21.83;11.73;;;-0.50;99.90;;;;;;5099289;28;19912;-67
2022/12/14 01:56:44;;;;;;;22.38;12.10;;;-0.60;99.90;;;;;;5099268;28;20036;-67
2022/12/14 01:59:17;;;;;;;25.10;12.27;;;-0.70;99.90;;;;;;5099251;28;20044;-67
2022/12/14 02:01:44;;;;;;;20.48;11.88;;;-0.60;99.90;;;;;;5081598;28;20024;-67
2022/12/14 02:04:14;;;;;;;21.38;12.35;;;-0.70;99.90;;;;;;5081568;28;20024;-67
2022/12/14 02:06:41;;;;;;;22.98;12.02;;;-0.80;99.90;;;;;;5098702;28;20130;-66
2022/12/14 02:09:11;;;;;;;22.13;12.63;;;-0.90;99.90;;;;;;5099067;28;20023;-67
2022/12/14 02:11:43;;;;;;;21.35;11.50;;;-0.80;99.90;;;;;;5081419;28;20032;-67
2022/12/14 02:14:08;;;;;;;15.60;8.77;;;-0.80;99.90;;;;;;5098935;28;20036;-67
2022/12/14 02:16:34;;;;;;;19.00;11.48;;;-0.80;99.90;;;;;;5098954;28;20100;-67
2022/12/14 02:19:00;;;;;;;20.77;11.65;;;-0.80;99.90;;;;;;5081323;28;20078;-68
2022/12/14 02:21:47;;;;;;;20.02;11.60;;;-0.80;99.90;;;;;;5081390;28;20069;-67
2022/12/14 02:24:21;;;;;;;20.83;11.65;;;-0.70;99.90;;;;;;5098777;28;20269;-67
2022/12/14 02:27:25;;;;;;;22.45;11.98;;;-0.70;99.90;;;;;;5081364;28;20104;-67
2022/12/14 02:30:09;;;;;;;19.88;11.43;;;-0.70;99.90;;;;;;5098725;28;20024;-68
2022/12/14 02:32:38;;;;;;;20.90;11.43;;;-0.70;99.90;;;;;;5098710;28;20063;-68
2022/12/14 02:35:19;;;;;;;26.90;11.88;;;-0.70;99.90;;;;;;5098542;28;20016;-68
2022/12/14 02:38:11;;;;;;;21.17;11.63;;;-0.60;99.90;;;;;;5098522;28;20094;-67
2022/12/14 02:40:51;;;;;;;22.17;11.70;;;-0.60;99.90;;;;;;5080912;28;20054;-68
2022/12/14 02:44:03;;;;;;;19.52;11.55;;;-0.60;99.90;;;;;;5098404;28;20165;-67
2022/12/14 02:46:41;;;;;;;21.50;11.88;;;-0.60;99.90;;;;;;5098868;28;20043;-66
2022/12/14 02:49:14;;;;;;;21.02;11.70;;;-0.50;99.90;;;;;;5098242;28;20431;-68
2022/12/14 02:52:00;;;;;;;22.23;11.55;;;-0.40;99.90;;;;;;5097914;28;20402;-67
2022/12/14 02:54:45;;;;;;;19.88;10.45;;;-0.50;99.90;;;;;;5080240;28;20020;-67
2022/12/14 02:57:19;;;;;;;17.23;10.60;;;-0.50;99.90;;;;;;5098373;28;20111;-67
2022/12/14 02:59:49;;;;;;;19.08;10.65;;;-0.50;99.90;;;;;;5098745;28;20042;-69
2022/12/14 03:02:15;;;;;;;20.80;11.40;;;-0.50;99.90;;;;;;5098093;28;20041;-67
2022/12/14 03:04:46;;;;;;;21.48;11.98;;;-0.50;99.90;;;;;;5098026;28;20319;-67
2022/12/14 03:07:31;;;;;;;20.00;11.35;;;-0.50;99.90;;;;;;5080014;28;20071;-67
2022/12/14 03:10:23;;;;;;;20.50;11.43;;;-0.50;99.90;;;;;;5080307;28;20020;-67
2022/12/14 03:13:02;;;;;;;19.65;10.85;;;-0.50;99.90;;;;;;5083449;28;20062;-66
2022/12/14 03:15:29;;;;;;;22.50;11.82;;;-0.50;99.90;;;;;;5080372;28;20108;-67
2022/12/14 03:18:00;;;;;;;20.85;12.00;;;-0.50;99.90;;;;;;5097697;28;20392;-68
2022/12/14 03:20:29;;;;;;;20.88;11.32;;;-0.50;99.90;;;;;;5098365;28;20295;-68
2022/12/14 03:23:07;;;;;;;21.08;11.57;;;-0.50;99.90;;;;;;5097604;28;20039;-67
2022/12/14 03:25:46;;;;;;;21.35;11.82;;;-0.50;99.90;;;;;;5098151;28;20031;-68
2022/12/14 03:28:28;;;;;;;23.17;11.80;;;-0.50;99.90;;;;;;5097503;28;20385;-68
2022/12/14 03:31:09;;;;;;;13.20;8.23;;;-0.40;99.90;;;;;;5097747;28;20059;-68
2022/12/14 03:33:37;;;;;;;18.35;10.98;;;-0.40;99.90;;;;;;5097509;28;20051;-68
2022/12/14 03:36:22;;;;;;;21.10;11.85;;;-0.50;99.90;;;;;;5097783;28;20039;-68
2022/12/14 03:38:51;;;;;;;22.38;11.80;;;-0.60;99.90;;;;;;5097448;28;20028;-67
2022/12/14 03:41:45;;;;;;;20.30;11.50;;;-0.60;99.90;;;;;;5079688;28;20027;-67
2022/12/14 03:44:26;;;;;;;22.00;11.70;;;-0.60;99.90;;;;;;5097318;28;20024;-68
2022/12/14 03:47:37;;;;;;;23.90;12.15;;;-0.60;99.90;;;;;;5097179;28;20024;-68
2022/12/14 03:50:32;;;;;;;21.95;11.65;;;-0.60;99.90;;;;;;5077468;28;20036;-67
2022/12/14 03:53:43;;;;;;;22.73;12.50;;;-0.60;99.90;;;;;;5068003;28;20040;-68
2022/12/14 03:56:21;;;;;;;25.83;12.15;;;-0.60;99.90;;;;;;5086404;28;20036;-68
2022/12/14 03:59:16;;;;;;;25.80;12.70;;;-0.60;99.90;;;;;;5079740;28;20023;-68
2022/12/14 04:01:55;;;;;;;22.23;12.05;;;-0.60;99.90;;;;;;5097129;28;20111;-68
2022/12/14 04:05:04;;;;;;;20.85;11.70;;;-0.60;99.90;;;;;;5097138;28;20096;-68
2022/12/14 04:07:36;;;;;;;22.27;12.75;;;-0.60;99.90;;;;;;5095068;28;20055;-67
2022/12/14 04:18:58;;;;;;;22.80;12.25;;;-0.40;99.90;;;;;;5082169;28;20120;-68
2022/12/14 04:21:45;;;;;;;20.85;11.95;;;-0.40;99.90;;;;;;5079382;28;20092;-67
2022/12/14 04:27:12;;;;;;;21.90;12.15;;;-0.40;99.90;;;;;;5096851;28;20051;-67
2022/12/14 04:30:01;;;;;;;24.52;12.68;;;-0.50;99.90;;;;;;5096842;28;20020;-67
2022/12/14 04:32:50;;;;;;;21.40;11.57;;;-0.60;99.90;;;;;;5096397;28;20044;-67
2022/12/14 04:35:25;;;;;;;21.05;12.00;;;-0.60;99.90;;;;;;5079490;28;20024;-69
2022/12/14 04:37:57;;;;;;;21.90;11.48;;;-0.60;99.90;;;;;;5079223;28;20322;-68
2022/12/14 04:40:34;;;;;;;20.58;12.05;;;-0.50;99.90;;;;;;5097170;28;20032;-68
2022/12/14 04:43:06;;;;;;;19.73;11.73;;;-0.50;99.90;;;;;;5096692;28;20455;-68
2022/12/14 04:45:47;;;;;;;22.00;12.25;;;-0.60;99.90;;;;;;5097264;28;20039;-68
2022/12/14 04:48:41;;;;;;;21.05;11.70;;;-0.50;99.90;;;;;;5096831;28;20395;-67
2022/12/14 04:51:22;;;;;;;22.65;12.13;;;-0.50;99.90;;;;;;5079745;28;20028;-68
2022/12/14 04:53:53;;;;;;;21.88;12.15;;;-0.50;99.90;;;;;;5096677;28;20107;-68
2022/12/14 04:56:25;;;;;;;21.02;11.32;;;-0.50;99.90;;;;;;5096796;28;20035;-68
2022/12/14 04:58:51;;;;;;;22.50;12.77;;;-0.50;99.90;;;;;;5078974;28;20051;-68
2022/12/14 05:01:38;;;;;;;21.48;11.63;;;-0.50;99.90;;;;;;5096494;28;20056;-69
2022/12/14 05:04:39;;;;;;;22.65;11.65;;;-0.50;99.90;;;;;;5079058;28;20032;-68
2022/12/14 05:07:20;;;;;;;20.73;11.38;;;-0.50;99.90;;;;;;5074917;28;20075;-68
2022/12/14 05:10:02;;;;;;;22.70;12.05;;;-0.50;99.90;;;;;;5096433;28;20069;-68
2022/12/14 05:12:51;;;;;;;16.05;8.57;;;-0.60;99.90;;;;;;5078851;28;20107;-69
2022/12/14 05:15:22;;;;;;;19.25;11.35;;;-0.60;99.90;;;;;;5099124;28;20318;-68
2022/12/14 05:17:48;;;;;;;21.75;11.80;;;-0.50;99.90;;;;;;5100338;28;20295;-68
2022/12/14 05:20:19;;;;;;;21.70;11.27;;;-0.50;99.90;;;;;;5099989;28;20043;-69
2022/12/14 05:22:44;;;;;;;22.17;12.85;;;-0.50;99.90;;;;;;5100220;28;20024;-68
2022/12/14 05:25:11;;;;;;;20.60;11.45;;;-0.50;99.90;;;;;;5099957;28;20051;-68
2022/12/14 05:27:37;;;;;;;22.45;12.43;;;-0.50;99.90;;;;;;5099756;28;20039;-68
2022/12/14 05:30:05;;;;;;;19.25;11.73;;;-0.50;99.90;;;;;;5099788;28;20277;-68
2022/12/14 05:32:31;;;;;;;18.85;11.52;;;-0.50;99.90;;;;;;5082327;28;20028;-69
2022/12/14 05:34:57;;;;;;;22.02;11.50;;;-0.50;99.90;;;;;;5099701;28;20070;-69
2022/12/14 05:37:23;;;;;;;21.77;11.68;;;-0.50;99.90;;;;;;5099590;28;20024;-68
2022/12/14 05:39:49;;;;;;;18.83;11.65;;;-0.50;99.90;;;;;;5065273;28;20028;-68
2022/12/14 05:42:15;;;;;;;19.13;11.63;;;-0.50;99.90;;;;;;5099548;28;20036;-68
2022/12/14 05:44:41;;;;;;;22.80;12.63;;;-0.40;99.90;;;;;;5099648;28;20028;-67
2022/12/14 05:47:07;;;;;;;20.75;11.73;;;-0.40;99.90;;;;;;5081737;28;20182;-68
2022/12/14 05:49:33;;;;;;;23.60;11.90;;;-0.40;99.90;;;;;;5099422;28;20092;-68
2022/12/14 05:51:58;;;;;;;21.85;12.18;;;-0.40;99.90;;;;;;5099357;28;20032;-67
2022/12/14 05:54:24;;;;;;;19.45;11.52;;;-0.50;99.90;;;;;;5099443;28;20085;-69
2022/12/14 05:56:51;;;;;;;20.83;11.98;;;-0.50;99.90;;;;;;5099837;28;20043;-68
2022/12/14 05:59:17;;;;;;;21.73;12.68;;;-0.50;99.90;;;;;;5081771;28;20020;-69
2022/12/14 06:01:44;;;;;;;24.10;12.45;;;-0.60;99.90;;;;;;5099264;28;20035;-69
2022/12/14 06:04:11;;;;;;;22.25;11.80;;;-0.60;99.90;;;;;;5099264;28;20303;-68
2022/12/14 06:06:37;;;;;;;24.02;12.38;;;-0.60;99.90;;;;;;5099254;28;20052;-69
2022/12/14 06:09:06;;;;;;;22.85;11.90;;;-0.60;99.90;;;;;;5081765;28;20463;-68
2022/12/14 06:11:32;;;;;;;22.92;12.07;;;-0.60;99.90;;;;;;5099240;28;20053;-68
2022/12/14 06:13:57;;;;;;;18.05;11.40;;;-0.60;99.90;;;;;;5099023;28;20295;-68
2022/12/14 06:16:25;;;;;;;19.70;11.50;;;-0.60;99.90;;;;;;5098936;28;20035;-68
2022/12/14 06:18:55;;;;;;;24.92;12.80;;;-0.60;99.90;;;;;;5098990;28;20077;-69
2022/12/14 06:21:30;;;;;;;22.30;12.45;;;-0.60;99.90;;;;;;5081352;28;20040;-68
2022/12/14 06:23:57;;;;;;;20.55;12.20;;;-0.50;99.90;;;;;;5098907;28;20419;-69
2022/12/14 06:26:24;;;;;;;18.27;11.23;;;-0.50;99.90;;;;;;5098671;28;20032;-68
2022/12/14 06:28:51;;;;;;;21.70;12.48;;;-0.50;99.90;;;;;;5098656;28;20294;-68
2022/12/14 06:31:24;;;;;;;21.35;12.52;;;-0.60;99.90;;;;;;5099372;28;20072;-68
2022/12/14 06:33:52;;;;;;;22.85;12.48;;;-0.60;99.90;;;;;;5081167;28;20050;-68
2022/12/14 06:36:23;;;;;;;20.73;11.77;;;-0.60;99.90;;;;;;5098595;28;20296;-67
2022/12/14 06:38:50;;;;;;;19.42;12.05;;;-0.60;99.90;;;;;;5080921;28;20043;-69
2022/12/14 06:41:16;;;;;;;22.25;12.25;;;-0.70;99.90;;;;;;5081541;28;20036;-68
2022/12/14 06:43:42;;;;;;;22.17;12.13;;;-0.70;99.90;;;;;;5080966;28;20051;-68
2022/12/14 06:46:09;;;;;;;22.23;12.63;;;-0.70;99.90;;;;;;5098454;28;20418;-68
2022/12/14 06:48:35;;;;;;;19.98;11.52;;;-0.80;99.90;;;;;;5098267;28;20028;-69
2022/12/14 06:51:05;;;;;;;23.58;12.40;;;-0.70;99.90;;;;;;5080964;28;20034;-68
2022/12/14 06:53:32;;;;;;;23.48;12.65;;;-0.80;99.90;;;;;;5098425;28;20058;-68
2022/12/14 06:56:09;;;;;;;23.55;11.95;;;-0.80;99.90;;;;;;5098555;28;20024;-68
2022/12/14 06:58:36;;;;;;;22.73;11.82;;;-0.80;99.90;;;;;;5080990;28;20130;-68
2022/12/14 07:01:16;;;;;;;21.40;11.23;;;-0.80;99.90;;;;;;5098281;28;20020;-68
2022/12/14 07:03:46;;;;;;;22.23;12.25;;;-0.90;99.90;;;;;;5098170;28;20095;-68
2022/12/14 07:06:11;;;;;;;21.33;12.70;;;-0.90;99.90;;;;;;5097963;28;20028;-68
2022/12/14 07:08:38;;;;;;;20.70;11.60;;;-0.90;99.90;;;;;;5098027;28;20042;-68
2022/12/14 07:11:10;;;;;;;22.80;11.93;;;-0.90;99.90;;;;;;5097989;28;20411;-69
2022/12/14 07:13:37;;;;;;;21.13;11.93;;;-0.90;99.90;;;;;;5098326;28;20376;-68
2022/12/14 07:16:05;;;;;;;20.42;11.80;;;-0.80;99.90;;;;;;5063819;28;20299;-68
2022/12/14 07:18:31;;;;;;;20.60;12.65;;;-0.90;99.90;;;;;;5080365;28;20123;-67
2022/12/14 07:21:03;;;;;;;23.73;11.93;;;-0.90;99.90;;;;;;5080355;28;20024;-68
2022/12/14 07:23:31;;;;;;;22.95;12.35;;;-0.90;99.90;;;;;;5097716;28;20411;-67
2022/12/14 07:26:06;;;;;;;21.25;11.93;;;-0.90;99.90;;;;;;5080432;28;20040;-67
2022/12/14 07:28:32;;;;;;;19.25;11.55;;;-0.90;99.90;;;;;;5097760;28;20350;-66
2022/12/14 07:30:59;;;;;;;24.27;12.35;;;-0.90;99.90;;;;;;5097589;28;20077;-70
2022/12/14 07:33:26;;;;;;;23.52;12.75;;;-0.90;99.90;;;;;;5079849;28;20308;-71
2022/12/14 07:36:00;;;;;;;22.85;12.75;;;-0.80;99.90;;;;;;5097567;28;20108;-71
2022/12/14 07:38:25;;;;;;;26.70;12.48;;;-0.90;99.90;;;;;;5097034;28;20173;-71
2022/12/14 07:40:51;;;;;;;25.42;13.18;;;-0.90;99.90;;;;;;5046697;28;20074;-71
2022/12/14 07:43:17;;;;;;;23.17;13.02;;;-0.90;99.90;;;;;;5063103;28;20036;-71
2022/12/14 07:45:43;;;;;;;27.40;12.85;;;-0.80;99.90;;;;;;5080552;28;20067;-71
2022/12/14 07:48:09;;;;;;;23.42;12.98;;;-0.80;99.90;;;;;;5063412;28;20071;-71
2022/12/14 07:50:35;;;;;;;21.30;12.27;;;-0.80;99.90;;;;;;5096820;28;20028;-71
2022/12/14 07:53:01;;;;;;;22.45;12.75;;;-0.90;99.90;;;;;;5079996;28;20276;-70
2022/12/14 07:55:28;;;;;;;21.88;12.52;;;-0.90;99.90;;;;;;5080228;28;20025;-71
2022/12/14 07:57:54;;;;;;;24.98;13.48;;;-1.00;99.90;;;;;;5080222;28;20032;-71
2022/12/14 08:00:20;;;;;;;23.02;12.88;;;-1.00;99.90;;;;;;5097175;28;20031;-71
2022/12/14 08:02:46;;;;;;;22.25;12.75;;;-1.00;99.90;;;;;;5097354;28;20038;-71
2022/12/14 08:05:12;;;;;;;23.48;12.63;;;-1.00;99.90;;;;;;5063499;28;20115;-71
2022/12/14 08:07:38;;;;;;;24.23;13.43;;;-1.10;99.90;;;;;;5097206;28;20129;-71
2022/12/14 08:10:04;;;;;;;29.15;14.13;;;-1.10;99.90;;;;;;5079851;28;20123;-71
2022/12/14 08:12:30;;;;;;;26.00;13.18;;;-1.00;99.90;;;;;;5063108;28;20093;-71
2022/12/14 08:14:55;;;;;;;30.55;14.18;;;-1.10;99.90;;;;;;5063192;28;20028;-71
2022/12/14 08:17:21;;;;;;;28.23;14.10;;;-1.20;99.90;;;;;;5046484;28;20043;-72
2022/12/14 08:19:47;;;;;;;29.40;13.95;;;-1.30;99.90;;;;;;5063036;28;20028;-72
2022/12/14 08:22:13;;;;;;;24.08;13.82;;;-1.30;99.90;;;;;;5079954;28;20028;-72
2022/12/14 08:24:39;;;;;;;24.80;13.18;;;-1.30;99.90;;;;;;5063629;28;20064;-72
2022/12/14 08:27:05;;;;;;;26.25;13.85;;;-1.20;99.90;;;;;;5079523;28;20029;-72
2022/12/14 08:29:31;;;;;;;26.20;13.85;;;-1.20;99.90;;;;;;5079374;28;20438;-73
2022/12/14 08:31:57;;;;;;;24.33;13.95;;;-1.30;99.90;;;;;;5079469;28;20068;-73
2022/12/14 08:34:23;;;;;;;24.45;14.27;;;-1.20;99.90;;;;;;5080040;28;20050;-72
2022/12/14 08:36:49;;;;;;;24.73;13.32;;;-1.20;99.90;;;;;;5062725;28;20438;-73
2022/12/14 08:39:15;;;;;;;24.98;13.75;;;-1.20;99.90;;;;;;5079220;28;20388;-72
2022/12/14 08:41:40;;;;;;;26.38;13.80;;;-1.40;99.90;;;;;;5079185;28;20063;-72
2022/12/14 08:44:07;;;;;;;27.55;14.48;;;-1.40;99.90;;;;;;5079643;28;20056;-72
2022/12/14 08:46:34;;;;;;;26.85;14.50;;;-1.30;99.90;;;;;;5096939;28;20020;-72
2022/12/14 08:49:00;;;;;;;25.88;14.00;;;-1.20;99.90;;;;;;5079327;28;20284;-72
2022/12/14 08:51:27;;;;;;;24.40;14.40;;;-1.20;99.90;;;;;;5082940;28;20102;-72
2022/12/14 08:53:54;;;;;;;31.10;13.90;;;-1.20;99.90;;;;;;5083236;28;20307;-72
2022/12/14 08:56:22;;;;;;;26.75;13.88;;;-1.20;99.90;;;;;;5066419;28;20471;-72
2022/12/14 08:58:48;;;;;;;24.02;13.68;;;-1.20;99.90;;;;;;5083045;28;20036;-72
2022/12/14 09:01:25;;;;;;;24.90;14.07;;;-1.20;99.90;;;;;;5100548;28;20119;-71
2022/12/14 09:03:51;;;;;;;27.30;14.23;;;-1.20;99.90;;;;;;5082864;28;20341;-73
2022/12/14 09:06:23;;;;;;;27.70;15.32;;;-1.20;99.90;;;;;;5082630;28;20036;-72
2022/12/14 09:08:50;;;;;;;28.05;14.07;;;-1.20;99.90;;;;;;5066196;28;20303;-71
2022/12/14 09:11:17;;;;;;;27.63;13.98;;;-1.20;99.90;;;;;;5082613;28;20310;-72
2022/12/14 09:13:43;;;;;;;27.48;14.40;;;-1.20;99.90;;;;;;5083029;28;20116;-72
2022/12/14 09:16:18;;;;;;;26.50;14.15;;;-1.20;99.90;;;;;;5082890;28;20067;-72
2022/12/14 09:18:45;;;;;;;28.52;14.52;;;-1.20;99.90;;;;;;5082561;28;20083;-72
2022/12/14 09:21:11;;;;;;;28.27;14.50;;;-1.20;99.90;;;;;;5065890;28;20096;-72
2022/12/14 09:23:38;;;;;;;27.65;14.02;;;-1.20;99.90;;;;;;5082909;28;20032;-72
2022/12/14 09:26:09;;;;;;;33.78;14.90;;;-1.20;99.90;;;;;;5065931;28;20119;-72
2022/12/14 09:28:36;;;;;;;30.02;14.50;;;-1.10;99.90;;;;;;5082318;28;20036;-72
2022/12/14 09:31:09;;;;;;;25.25;14.10;;;-1.10;99.90;;;;;;5100374;28;20024;-73
2022/12/14 09:33:35;;;;;;;24.92;13.18;;;-1.10;99.90;;;;;;5082464;28;20107;-72
2022/12/14 09:36:08;;;;;;;26.52;13.68;;;-1.30;99.90;;;;;;5099803;28;20020;-72
2022/12/14 09:38:36;;;;;;;23.25;12.88;;;-1.20;99.90;;;;;;5082083;28;20242;-71
2022/12/14 09:41:04;;;;;;;27.13;13.68;;;-1.20;99.90;;;;;;5082407;28;20028;-70
2022/12/14 09:43:34;;;;;;;23.33;13.90;;;-1.10;99.90;;;;;;5099742;28;20280;-69
2022/12/14 09:46:14;;;;;;;21.02;12.70;;;-0.90;99.90;;;;;;5099578;28;20100;-69
2022/12/14 09:48:41;;;;;;;23.02;12.20;;;-0.50;99.90;;;;;;5099296;28;20028;-69
2022/12/14 09:51:16;;;;;;;21.90;11.98;;;0.40;99.90;;;;;;5099216;28;20103;-68
2022/12/14 09:53:45;;;;;;;20.00;11.73;;;1.00;99.90;;;;;;5065168;28;20032;-68
2022/12/14 09:56:16;;;;;;;19.77;11.68;;;1.40;99.90;;;;;;5081543;28;20028;-68
2022/12/14 09:58:55;;;;;;;19.35;11.20;;;1.70;99.90;;;;;;5081694;28;20067;-68
2022/12/14 10:01:21;;;;;;;19.30;11.23;;;1.80;99.90;;;;;;5098914;28;20299;-68
2022/12/14 10:04:24;;;;;;;18.35;10.57;;;2.20;99.90;;;;;;5099114;28;20108;-68
2022/12/14 10:06:53;;;;;;;21.33;11.07;;;2.90;99.90;;;;;;5081130;28;20051;-68
2022/12/14 10:09:32;;;;;;;20.27;11.60;;;3.60;99.90;;;;;;5081452;28;20031;-68
2022/12/14 10:12:21;;;;;;;19.90;10.95;;;4.00;99.90;;;;;;5099349;28;20099;-68
2022/12/14 10:15:13;;;;;;;17.85;11.40;;;4.60;99.90;;;;;;5081703;28;20028;-68
2022/12/14 10:17:42;;;;;;;15.40;10.90;;;5.00;99.90;;;;;;5061145;28;20137;-68
2022/12/14 10:20:20;;;;;;;17.48;11.75;;;5.40;99.90;;;;;;5099105;28;20039;-67
2022/12/14 10:22:51;;;;;;;16.48;11.15;;;5.60;99.90;;;;;;5098818;28;20107;-67
2022/12/14 10:25:32;;;;;;;20.63;12.52;;;6.00;99.90;;;;;;5081719;28;20036;-67
2022/12/14 10:28:13;;;;;;;18.73;11.73;;;6.40;99.90;;;;;;5098612;28;20052;-68
2022/12/14 10:30:41;;;;;;;18.02;12.50;;;6.70;99.90;;;;;;5099058;28;20036;-67
2022/12/14 10:33:23;;;;;;;18.38;11.60;;;7.40;99.90;;;;;;5097869;28;20099;-68
2022/12/14 10:35:54;;;;;;;17.20;11.88;;;7.20;99.90;;;;;;5098575;28;20057;-68
2022/12/14 10:38:46;;;;;;;16.20;10.93;;;7.20;99.90;;;;;;5098442;28;20036;-69
2022/12/14 10:41:34;;;;;;;19.75;12.23;;;7.40;99.90;;;;;;5097624;28;20028;-69
2022/12/14 10:44:17;;;;;;;17.40;12.07;;;7.90;99.90;;;;;;5098279;28;20141;-69
2022/12/14 10:46:58;;;;;;;17.08;11.35;;;7.80;99.90;;;;;;5098317;28;20032;-69
2022/12/14 10:49:32;;;;;;;18.98;11.85;;;7.20;99.90;;;;;;5098271;28;20400;-68
2022/12/14 10:52:05;;;;;;;17.10;12.13;;;7.70;99.90;;;;;;5097510;28;20032;-68
2022/12/14 10:54:37;;;;;;;17.23;11.85;;;7.60;99.90;;;;;;5098287;28;20028;-68
2022/12/14 10:57:04;;;;;;;12.47;8.50;;;8.30;99.90;;;;;;5098590;28;20039;-68
2022/12/14 10:59:36;;;;;;;17.10;12.02;;;8.80;99.90;;;;;;5097313;28;20278;-67
2022/12/14 11:02:15;;;;;;;16.42;11.40;;;9.30;99.90;;;;;;5097416;28;20032;-69
2022/12/14 11:04:52;;;;;;;16.17;11.50;;;9.60;99.90;;;;;;5098148;28;20043;-68
2022/12/14 11:07:36;;;;;;;18.40;11.38;;;9.50;99.90;;;;;;5097059;28;20134;-68
2022/12/14 11:10:27;;;;;;;17.67;11.10;;;9.50;99.90;;;;;;5097157;28;20028;-67
2022/12/14 11:13:19;;;;;;;21.30;11.77;;;9.00;99.90;;;;;;5087925;28;20109;-68
2022/12/14 11:15:51;;;;;;;18.03;11.07;;;8.30;99.90;;;;;;5097182;28;20051;-67
2022/12/14 11:18:16;;;;;;;19.17;11.50;;;7.50;99.90;;;;;;5097145;28;20028;-68
2022/12/14 11:21:03;;;;;;;17.45;11.65;;;7.00;99.90;;;;;;5097814;28;20107;-69
2022/12/14 11:23:44;;;;;;;17.25;11.65;;;6.00;99.90;;;;;;5080048;28;20032;-67
2022/12/14 11:26:22;;;;;;;21.08;12.13;;;4.60;99.90;;;;;;5080064;28;20036;-67
2022/12/14 11:28:51;;;;;;;18.63;11.65;;;4.10;99.90;;;;;;5096876;28;20141;-67
2022/12/14 11:31:22;;;;;;;22.33;11.55;;;4.10;99.90;;;;;;5080313;28;20111;-68
2022/12/14 11:33:56;;;;;;;19.58;11.32;;;3.50;99.90;;;;;;5097054;28;20024;-67
2022/12/14 11:36:23;;;;;;;18.90;10.75;;;3.40;99.90;;;;;;5097522;28;20039;-67
2022/12/14 11:38:58;;;;;;;17.88;10.30;;;3.50;99.90;;;;;;5096785;28;20039;-67
2022/12/14 11:41:45;;;;;;;18.95;10.77;;;2.90;99.90;;;;;;5097497;28;20110;-68
2022/12/14 11:44:17;;;;;;;21.30;10.93;;;2.90;99.90;;;;;;5096656;28;20032;-67
2022/12/14 11:46:57;;;;;;;15.13;7.72;;;2.80;99.90;;;;;;5097877;28;20036;-68
2022/12/14 11:49:32;;;;;;;21.15;10.32;;;2.90;99.90;;;;;;5096562;28;20036;-67
2022/12/14 11:52:04;;;;;;;15.80;9.73;;;2.70;99.90;;;;;;5097305;28;20070;-67
2022/12/14 11:54:31;;;;;;;16.92;9.85;;;2.70;99.90;;;;;;5097190;28;20408;-67
2022/12/14 11:57:01;;;;;;;17.52;10.10;;;2.60;99.90;;;;;;5097078;28;20023;-66
2022/12/14 11:59:36;;;;;;;17.13;10.13;;;2.50;99.90;;;;;;5097008;28;20024;-69
2022/12/14 12:02:34;;;;;;;16.02;10.27;;;2.50;99.90;;;;;;5097037;28;20099;-68
2022/12/14 12:05:12;;;;;;;17.77;10.05;;;2.50;99.90;;;;;;5096586;28;20427;-68
2022/12/14 12:07:59;;;;;;;19.85;10.25;;;2.10;99.90;;;;;;5096750;28;20052;-69
2022/12/14 12:10:44;;;;;;;19.45;10.02;;;2.50;99.90;;;;;;5097115;28;20055;-68
2022/12/14 12:13:30;;;;;;;16.60;9.90;;;2.40;99.90;;;;;;5096406;28;20032;-68
2022/12/14 12:16:00;;;;;;;15.98;9.23;;;2.30;99.90;;;;;;5096939;28;20077;-68
2022/12/14 12:18:36;;;;;;;15.18;9.27;;;2.10;99.90;;;;;;5097186;28;20020;-68
2022/12/14 12:21:05;;;;;;;14.65;9.15;;;2.10;99.90;;;;;;5096900;28;20055;-68
2022/12/14 12:23:44;;;;;;;16.42;9.00;;;1.90;99.90;;;;;;5097853;28;20031;-67
2022/12/14 12:26:23;;;;;;;15.23;9.60;;;1.90;99.90;;;;;;5101074;28;20112;-67
2022/12/14 12:29:22;;;;;;;14.57;9.38;;;2.00;99.90;;;;;;5100930;28;20350;-68
2022/12/14 12:32:02;;;;;;;19.40;10.27;;;2.30;99.90;;;;;;5099624;28;20032;-69
2022/12/14 12:34:36;;;;;;;14.65;9.15;;;2.30;99.90;;;;;;5101054;28;20046;-68
2022/12/14 12:37:11;;;;;;;16.13;9.82;;;2.20;99.90;;;;;;5100026;28;20020;-69
2022/12/14 12:39:41;;;;;;;15.73;9.77;;;2.20;99.90;;;;;;5100339;28;20042;-69
2022/12/14 12:42:50;;;;;;;18.38;10.25;;;2.30;99.90;;;;;;5101233;28;20036;-69
2022/12/14 12:45:24;;;;;;;18.65;8.88;;;2.30;99.90;;;;;;5100852;28;20138;-69
2022/12/14 12:47:58;;;;;;;15.00;9.18;;;2.30;99.90;;;;;;5100607;28;20031;-69
2022/12/14 12:50:30;;;;;;;15.02;9.68;;;2.10;99.90;;;;;;5100038;28;20099;-68
2022/12/14 12:53:16;;;;;;;16.25;9.35;;;2.10;99.90;;;;;;5100894;28;20082;-68
2022/12/14 12:55:48;;;;;;;17.45;9.43;;;2.30;99.90;;;;;;5101100;28;20028;-69
2022/12/14 12:58:24;;;;;;;16.38;8.98;;;2.30;99.90;;;;;;5100462;28;20141;-69
2022/12/14 13:00:56;;;;;;;14.90;9.13;;;2.10;99.90;;;;;;5101167;28;20046;-68
2022/12/14 13:03:27;;;;;;;16.15;9.57;;;1.80;99.90;;;;;;5100262;28;20031;-68
2022/12/14 13:05:56;;;;;;;16.92;9.10;;;1.50;99.90;;;;;;5099581;28;20043;-68
2022/12/14 13:08:27;;;;;;;15.27;9.02;;;1.50;99.90;;;;;;5100085;28;20052;-69
2022/12/14 13:10:55;;;;;;;16.80;9.48;;;1.50;99.90;;;;;;5099516;28;20032;-68